Time;durP1;ratioP1;P1;durP2;ratioP2;P2;SDS_P1;SDS_P2;PMS_P1;PMS_P2;Temp;Humidity;BMP_temperature;BMP_pressure;BME280_temperature;BME280_humidity;BME280_pressure;Samples;Min_cycle;Max_cycle;Signal;HPM_P1;HPM_P2
2023/04/21 00:02:02;;;;;;;;;;;;;;;25.89;41.50;93686.16;5015606;28;7092;-62
2023/04/21 00:04:37;;;;;;;;;;;;;;;25.93;42.08;93696.84;5030552;28;9281;-62
2023/04/21 00:07:13;;;;;;;;;;;;;;;25.90;41.92;93681.41;5039950;28;7037;-61
2023/04/21 00:09:57;;;;;;;;;;;;;;;25.90;41.61;93671.09;5033611;28;7040;-61
2023/04/21 00:12:38;;;;;;;;;;;;;;;25.90;42.42;93673.13;5033609;28;7684;-61
2023/04/21 00:15:25;;;;;;;;;;;;;;;25.90;41.21;93667.63;5034785;28;8586;-62
2023/04/21 00:18:12;;;;;;;;;;;;;;;25.91;41.83;93655.31;5017877;28;7324;-62
2023/04/21 00:21:08;;;;;;;;;;;;;;;25.90;41.79;93645.59;5050366;28;9257;-62
2023/04/21 00:23:46;;;;;;;;;;;;;;;25.87;42.05;93641.13;4957669;28;7328;-62
2023/04/21 00:26:26;;;;;;;;;;;;;;;25.87;41.34;93641.88;4957567;28;9018;-62
2023/04/21 00:28:54;;;;;;;;;;;;;;;25.88;41.96;93640.59;4972661;28;9205;-62
2023/04/21 00:31:31;;;;;;;;;;;;;;;25.90;42.02;93657.31;4973879;28;9518;-62
2023/04/21 00:34:16;;;;;;;;;;;;;;;25.90;42.02;93660.06;4961446;28;7201;-62
2023/04/21 00:36:41;;;;;;;;;;;;;;;25.88;41.29;93662.63;4991892;28;7036;-61
2023/04/21 00:39:19;;;;;;;;;;;;;;;25.90;41.67;93656.59;4955406;28;7194;-62
2023/04/21 00:42:00;;;;;;;;;;;;;;;25.89;42.05;93655.84;4952043;28;7061;-62
2023/04/21 00:44:38;;;;;;;;;;;;;;;25.89;41.83;93652.34;4949261;28;7075;-61
2023/04/21 00:47:32;;;;;;;;;;;;;;;25.89;41.52;93650.34;4956993;28;9513;-61
2023/04/21 00:49:58;;;;;;;;;;;;;;;25.89;42.15;93644.84;4954059;28;7725;-62
2023/04/21 00:52:45;;;;;;;;;;;;;;;25.89;42.05;93639.31;4954350;28;7523;-62
2023/04/21 00:55:12;;;;;;;;;;;;;;;25.87;41.35;93641.88;4957397;28;7262;-62
2023/04/21 00:57:41;;;;;;;;;;;;;;;25.89;41.48;93655.84;4972707;28;9722;-62
2023/04/21 01:00:09;;;;;;;;;;;;;;;25.89;41.86;93660.63;5008798;28;7041;-62
2023/04/21 01:02:44;;;;;;;;;;;;;;;25.88;42.14;93664.66;5051344;28;7007;-62
2023/04/21 01:05:38;;;;;;;;;;;;;;;25.87;41.57;93663.91;5049682;28;9351;-61
2023/04/21 01:08:06;;;;;;;;;;;;;;;25.87;41.90;93661.16;4972892;28;7371;-62
2023/04/21 01:10:34;;;;;;;;;;;;;;;25.85;41.79;93654.69;4975680;28;8997;-62
2023/04/21 01:13:18;;;;;;;;;;;;;;;25.89;41.83;93660.63;4991084;28;9081;-62
2023/04/21 01:15:57;;;;;;;;;;;;;;;25.87;41.67;93661.16;4957141;28;7019;-62
2023/04/21 01:18:33;;;;;;;;;;;;;;;25.86;41.71;93656.19;4963169;28;9393;-62
2023/04/21 01:21:10;;;;;;;;;;;;;;;25.86;41.24;93651.41;4956505;28;7357;-62
2023/04/21 01:23:39;;;;;;;;;;;;;;;25.85;41.81;93640.91;4960740;28;7157;-62
2023/04/21 01:26:17;;;;;;;;;;;;;;;25.86;42.21;93651.41;4972937;28;7281;-62
2023/04/21 01:28:59;;;;;;;;;;;;;;;25.87;41.96;93652.91;4955194;28;7297;-62
2023/04/21 01:31:27;;;;;;;;;;;;;;;25.87;41.90;93658.41;4950903;29;9077;-62
2023/04/21 01:33:57;;;;;;;;;;;;;;;25.87;41.81;93663.91;4937574;29;7046;-62
2023/04/21 01:36:23;;;;;;;;;;;;;;;25.86;41.72;93665.16;4980832;28;7344;-62
2023/04/21 01:38:51;;;;;;;;;;;;;;;25.87;42.22;93661.16;4956589;28;7500;-62
2023/04/21 01:41:31;;;;;;;;;;;;;;;25.88;42.05;93659.88;4972575;28;7203;-61
2023/04/21 01:44:08;;;;;;;;;;;;;;;25.86;41.41;93651.41;4963469;28;9051;-62
2023/04/21 01:46:42;;;;;;;;;;;;;;;25.87;41.18;93646.63;5048866;28;7071;-62
2023/04/21 01:49:16;;;;;;;;;;;;;;;25.88;41.24;93643.34;5020862;28;7223;-62
2023/04/21 01:51:49;;;;;;;;;;;;;;;25.86;41.80;93634.88;5049085;28;7362;-62
2023/04/21 01:54:16;;;;;;;;;;;;;;;25.87;42.01;93652.16;5032803;28;7127;-62
2023/04/21 01:56:57;;;;;;;;;;;;;;;25.88;41.53;93651.59;5032626;28;7285;-61
2023/04/21 01:59:26;;;;;;;;;;;;;;;25.86;41.47;93650.69;5048962;28;7362;-62
2023/04/21 02:01:52;;;;;;;;;;;;;;;25.83;41.84;93646.97;5015949;28;8729;-62
2023/04/21 02:04:46;;;;;;;;;;;;;;;25.82;41.51;93645.47;5019018;28;8499;-62
2023/04/21 02:07:12;;;;;;;;;;;;;;;25.82;41.60;93641.97;4991811;28;8980;-62
2023/04/21 02:09:43;;;;;;;;;;;;;;;25.81;41.92;93655.03;4991553;28;8735;-62
2023/04/21 02:12:24;;;;;;;;;;;;;;;25.81;41.83;93671.53;4972390;28;7307;-62
2023/04/21 02:15:09;;;;;;;;;;;;;;;25.81;41.68;93671.53;4957114;28;9065;-62
2023/04/21 02:17:48;;;;;;;;;;;;;;;25.77;42.16;93662.84;4940769;28;7246;-62
2023/04/21 02:20:24;;;;;;;;;;;;;;;25.80;42.10;93664.53;4957121;28;7299;-62
2023/04/21 02:22:52;;;;;;;;;;;;;;;25.80;41.89;93659.03;4956818;28;7505;-62
2023/04/21 02:25:36;;;;;;;;;;;;;;;25.80;41.88;93658.28;4961598;28;8786;-62
2023/04/21 02:28:15;;;;;;;;;;;;;;;25.77;41.81;93654.59;4963213;28;7519;-61
2023/04/21 02:30:45;;;;;;;;;;;;;;;25.79;42.01;93645.78;4974430;28;9351;-62
2023/04/21 02:33:30;;;;;;;;;;;;;;;25.81;42.06;93627.47;4979790;28;7037;-62
2023/04/21 02:36:07;;;;;;;;;;;;;;;25.79;41.94;93619.00;4959002;28;7216;-62
2023/04/21 02:38:36;;;;;;;;;;;;;;;25.83;41.60;93630.44;4971983;28;8769;-62
2023/04/21 02:41:13;;;;;;;;;;;;;;;25.84;41.66;93631.16;4959490;28;7600;-62
2023/04/21 02:43:53;;;;;;;;;;;;;;;25.81;41.88;93626.72;5000654;28;9003;-62
2023/04/21 02:46:21;;;;;;;;;;;;;;;25.84;41.83;93633.91;5048630;28;7114;-62
2023/04/21 02:49:15;;;;;;;;;;;;;;;25.82;41.57;93633.69;5051724;28;7844;-62
2023/04/21 02:52:00;;;;;;;;;;;;;;;25.81;41.69;93630.22;5035617;28;7040;-62
2023/04/21 02:54:26;;;;;;;;;;;;;;;25.81;42.06;93621.22;5015256;28;7493;-62
2023/04/21 02:56:54;;;;;;;;;;;;;;;25.80;41.31;93623.22;5062790;28;7213;-62
2023/04/21 02:59:20;;;;;;;;;;;;;;;25.78;41.68;93625.03;5034956;28;8922;-62
2023/04/21 03:01:48;;;;;;;;;;;;;;;25.79;41.93;93638.28;5063967;28;7081;-62
2023/04/21 03:04:16;;;;;;;;;;;;;;;25.80;41.90;93650.75;5033324;28;8214;-61
2023/04/21 03:06:56;;;;;;;;;;;;;;;25.81;41.37;93646.00;5034894;28;7195;-62
2023/04/21 03:09:50;;;;;;;;;;;;;;;25.81;41.36;93638.50;5035049;28;8738;-62
2023/04/21 03:12:46;;;;;;;;;;;;;;;25.81;41.19;93635.72;4977916;28;9101;-62
2023/04/21 03:15:26;;;;;;;;;;;;;;;25.81;42.13;93626.72;4935797;29;7292;-62
2023/04/21 03:17:53;;;;;;;;;;;;;;;25.80;42.18;93625.97;4923088;29;9126;-62
2023/04/21 03:20:28;;;;;;;;;;;;;;;25.79;42.16;93610.72;4928948;29;7201;-62
2023/04/21 03:22:56;;;;;;;;;;;;;;;25.79;42.04;93596.97;4928042;29;7380;-62
2023/04/21 03:25:22;;;;;;;;;;;;;;;25.80;41.29;93603.94;4918519;29;8971;-62
2023/04/21 03:27:49;;;;;;;;;;;;;;;25.80;42.01;93614.22;4934789;29;9145;-62
2023/04/21 03:30:15;;;;;;;;;;;;;;;25.82;41.22;93617.16;4934104;29;7118;-62
2023/04/21 03:32:41;;;;;;;;;;;;;;;25.80;42.30;93619.72;4918094;29;7260;-62
2023/04/21 03:35:07;;;;;;;;;;;;;;;25.79;41.21;93613.50;4932277;29;9373;-62
2023/04/21 03:37:33;;;;;;;;;;;;;;;25.80;42.48;93605.94;4935410;29;7039;-62
2023/04/21 03:40:12;;;;;;;;;;;;;;;25.79;41.86;93604.47;4920167;29;8803;-62
2023/04/21 03:42:39;;;;;;;;;;;;;;;25.77;41.87;93605.00;4920094;29;9075;-62
2023/04/21 03:45:25;;;;;;;;;;;;;;;25.81;41.60;93608.19;4918418;29;7954;-62
2023/04/21 03:48:00;;;;;;;;;;;;;;;25.80;42.24;93616.97;4935579;29;7246;-62
2023/04/21 03:50:33;;;;;;;;;;;;;;;25.80;42.33;93623.22;4975905;28;7012;-62
2023/04/21 03:53:02;;;;;;;;;;;;;;;25.80;41.29;93623.22;5014435;28;9427;-62
2023/04/21 03:55:28;;;;;;;;;;;;;;;25.81;41.34;93624.72;5051725;28;9045;-62
2023/04/21 03:58:07;;;;;;;;;;;;;;;25.80;42.04;93627.97;5030735;28;8919;-62
2023/04/21 04:00:43;;;;;;;;;;;;;;;25.77;42.35;93618.03;5015561;28;9050;-62
2023/04/21 04:03:12;;;;;;;;;;;;;;;25.80;42.26;93627.97;5024463;28;7029;-62
2023/04/21 04:05:53;;;;;;;;;;;;;;;25.80;41.95;93622.47;5029591;28;9011;-61
2023/04/21 04:08:21;;;;;;;;;;;;;;;25.80;41.37;93611.44;5043593;28;9303;-62
2023/04/21 04:10:56;;;;;;;;;;;;;;;25.79;41.60;93613.50;5053241;28;7236;-62
2023/04/21 04:13:25;;;;;;;;;;;;;;;25.80;41.85;93608.69;5025600;28;9511;-62
2023/04/21 04:16:17;;;;;;;;;;;;;;;25.81;41.41;93610.94;5033510;28;9044;-62
2023/04/21 04:19:04;;;;;;;;;;;;;;;25.79;41.99;93613.50;4954545;28;7038;-62
2023/04/21 04:21:39;;;;;;;;;;;;;;;25.80;41.27;93609.44;4947809;28;7397;-62
2023/04/21 04:24:10;;;;;;;;;;;;;;;25.82;41.86;93619.94;4949410;28;7011;-62
2023/04/21 04:26:38;;;;;;;;;;;;;;;25.80;41.53;93616.97;4938251;28;9077;-62
2023/04/21 04:29:09;;;;;;;;;;;;;;;25.79;41.35;93615.50;4939137;28;9378;-62
2023/04/21 04:31:37;;;;;;;;;;;;;;;25.79;42.02;93624.50;4959088;28;7272;-62
2023/04/21 04:34:03;;;;;;;;;;;;;;;25.79;42.26;93623.75;4971577;28;7280;-62
2023/04/21 04:36:39;;;;;;;;;;;;;;;25.77;42.09;93618.78;4972835;28;7265;-62
2023/04/21 04:39:21;;;;;;;;;;;;;;;25.76;42.17;93614.53;4973619;28;9162;-62
2023/04/21 04:41:51;;;;;;;;;;;;;;;25.78;41.86;93608.50;4973436;28;7046;-62
2023/04/21 04:44:24;;;;;;;;;;;;;;;25.78;41.88;93608.50;4954799;28;7357;-62
2023/04/21 04:47:00;;;;;;;;;;;;;;;25.80;41.83;93616.97;4955929;28;9060;-62
2023/04/21 04:49:26;;;;;;;;;;;;;;;25.81;41.58;93618.47;4989375;28;7034;-62
2023/04/21 04:52:30;;;;;;;;;;;;;;;25.80;42.25;93628.72;4979890;28;7111;-62
2023/04/21 04:54:58;;;;;;;;;;;;;;;25.80;42.03;93631.47;4980855;28;9025;-62
2023/04/21 04:57:40;;;;;;;;;;;;;;;25.80;42.00;93625.97;5019257;28;7358;-62
2023/04/21 05:00:23;;;;;;;;;;;;;;;25.79;41.67;93627.25;5012214;28;9412;-62
2023/04/21 05:03:27;;;;;;;;;;;;;;;25.83;42.40;93640.72;5030387;28;7017;-62
2023/04/21 05:05:53;;;;;;;;;;;;;;;25.82;42.09;93636.44;4954572;28;8994;-62
2023/04/21 05:08:33;;;;;;;;;;;;;;;25.83;42.44;93646.97;4956042;28;8960;-62
2023/04/21 05:11:20;;;;;;;;;;;;;;;25.83;41.68;93643.47;4956771;28;9100;-62
2023/04/21 05:13:55;;;;;;;;;;;;;;;25.80;41.74;93641.75;4956477;28;9675;-62
2023/04/21 05:16:40;;;;;;;;;;;;;;;25.83;42.35;93651.72;4972503;28;7240;-62
2023/04/21 05:19:07;;;;;;;;;;;;;;;25.81;41.67;93659.78;4938787;28;7302;-62
2023/04/21 05:21:43;;;;;;;;;;;;;;;25.80;42.42;93661.78;4971268;28;7041;-62
2023/04/21 05:24:23;;;;;;;;;;;;;;;25.78;42.04;93667.09;4972781;28;7268;-62
2023/04/21 05:26:49;;;;;;;;;;;;;;;25.79;42.41;93673.34;4968225;28;7261;-62
2023/04/21 05:29:51;;;;;;;;;;;;;;;25.79;41.76;93667.84;4990244;28;7250;-62
2023/04/21 05:32:19;;;;;;;;;;;;;;;25.80;41.91;93663.78;4927943;29;7219;-62
2023/04/21 05:34:46;;;;;;;;;;;;;;;25.85;42.61;93676.72;4933805;29;9410;-62
2023/04/21 05:37:24;;;;;;;;;;;;;;;25.87;41.48;93674.94;4935830;29;7294;-62
2023/04/21 05:40:00;;;;;;;;;;;;;;;25.96;42.19;93682.78;4949435;28;9010;-62
2023/04/21 05:42:55;;;;;;;;;;;;;;;26.04;41.35;93678.09;4972585;28;8797;-62
2023/04/21 05:45:29;;;;;;;;;;;;;;;26.03;40.28;93667.63;4945302;28;7309;-62
2023/04/21 05:47:57;;;;;;;;;;;;;;;26.01;39.99;93667.41;4955864;28;9328;-62
2023/04/21 05:50:34;;;;;;;;;;;;;;;25.97;40.53;93664.22;4945275;28;7249;-63
2023/04/21 05:53:01;;;;;;;;;;;;;;;25.97;40.48;93666.97;4945818;28;7294;-62
2023/04/21 05:55:39;;;;;;;;;;;;;;;26.02;40.90;93669.63;4967749;28;7216;-62
2023/04/21 05:58:05;;;;;;;;;;;;;;;26.01;40.58;93667.41;4961938;28;7241;-62
2023/04/21 06:00:41;;;;;;;;;;;;;;;25.98;40.14;93668.47;4948492;28;6986;-61
2023/04/21 06:03:09;;;;;;;;;;;;;;;25.99;40.55;93667.19;4957624;28;7045;-63
2023/04/21 06:05:55;;;;;;;;;;;;;;;25.98;40.80;93665.72;4972280;28;9086;-63
2023/04/21 06:08:32;;;;;;;;;;;;;;;25.95;41.00;93675.78;4992992;28;9584;-62
2023/04/21 06:10:59;;;;;;;;;;;;;;;25.91;40.56;93669.84;4974944;28;9601;-62
2023/04/21 06:13:34;;;;;;;;;;;;;;;25.91;39.97;93678.09;4973367;28;8253;-63
2023/04/21 06:16:13;;;;;;;;;;;;;;;25.91;41.04;93669.84;4993763;28;7196;-63
2023/04/21 06:18:39;;;;;;;;;;;;;;;25.90;40.95;93665.59;4970500;28;7060;-63
2023/04/21 06:21:05;;;;;;;;;;;;;;;25.87;41.00;93666.66;5000731;28;8930;-63
2023/04/21 06:23:32;;;;;;;;;;;;;;;25.86;41.34;93661.69;5033083;28;8219;-63
2023/04/21 06:26:03;;;;;;;;;;;;;;;25.83;40.53;93657.22;5050506;28;7202;-63
2023/04/21 06:28:38;;;;;;;;;;;;;;;25.83;41.29;93654.47;5055078;28;9052;-62
2023/04/21 06:31:04;;;;;;;;;;;;;;;25.87;41.65;93657.66;5031552;28;7016;-63
2023/04/21 06:33:30;;;;;;;;;;;;;;;25.88;41.08;93648.13;5034070;28;7023;-63
2023/04/21 06:35:56;;;;;;;;;;;;;;;25.92;40.60;93654.81;5045377;28;7076;-63
2023/04/21 06:38:22;;;;;;;;;;;;;;;25.94;41.21;93646.75;5033476;28;7433;-63
2023/04/21 06:40:49;;;;;;;;;;;;;;;26.04;40.59;93652.56;5033942;28;9084;-63
2023/04/21 06:43:19;;;;;;;;;;;;;;;26.00;40.75;93655.66;5050245;28;8298;-63
2023/04/21 06:45:45;;;;;;;;;;;;;;;25.98;40.92;93657.44;5034398;28;8215;-63
2023/04/21 06:48:12;;;;;;;;;;;;;;;25.93;40.81;93658.28;5033725;28;7259;-63
2023/04/21 06:50:43;;;;;;;;;;;;;;;25.94;41.52;93660.53;5017334;28;9466;-63
2023/04/21 06:53:10;;;;;;;;;;;;;;;25.92;41.14;93665.81;5032710;28;7032;-63
2023/04/21 06:55:38;;;;;;;;;;;;;;;25.89;41.10;93655.84;5051151;28;9356;-63
2023/04/21 06:58:10;;;;;;;;;;;;;;;25.87;41.19;93654.91;5040661;28;8993;-63
2023/04/21 07:00:38;;;;;;;;;;;;;;;25.88;40.94;93659.88;5032892;28;7283;-63
2023/04/21 07:03:06;;;;;;;;;;;;;;;25.89;41.93;93655.09;5033370;28;8774;-63
2023/04/21 07:05:36;;;;;;;;;;;;;;;25.87;41.80;93649.38;5031450;28;7363;-63
2023/04/21 07:08:02;;;;;;;;;;;;;;;25.86;40.99;93648.63;5053108;28;9158;-64
2023/04/21 07:10:33;;;;;;;;;;;;;;;25.87;41.69;93646.63;5031211;28;7018;-62
2023/04/21 07:12:59;;;;;;;;;;;;;;;25.87;41.42;93644.63;5033569;28;7285;-63
2023/04/21 07:15:34;;;;;;;;;;;;;;;25.88;41.60;93648.13;5030152;28;9773;-63
2023/04/21 07:18:08;;;;;;;;;;;;;;;25.87;41.80;93652.91;5034682;28;7797;-64
2023/04/21 07:20:51;;;;;;;;;;;;;;;25.88;42.06;93648.84;5047174;28;8754;-63
2023/04/21 07:23:27;;;;;;;;;;;;;;;25.89;42.27;93647.59;5048583;28;9689;-63
2023/04/21 07:26:20;;;;;;;;;;;;;;;25.90;41.54;93645.59;5029091;28;8772;-63
2023/04/21 07:29:15;;;;;;;;;;;;;;;25.91;41.98;93639.53;5013858;28;9241;-63
2023/04/21 07:31:45;;;;;;;;;;;;;;;25.93;41.31;93639.00;5006696;28;7263;-63
2023/04/21 07:34:11;;;;;;;;;;;;;;;25.95;41.84;93637.19;5028496;28;7243;-64
2023/04/21 07:36:50;;;;;;;;;;;;;;;26.00;41.12;93646.63;5012978;28;9005;-63
2023/04/21 07:39:29;;;;;;;;;;;;;;;25.99;41.72;93640.38;5010639;28;7242;-63
2023/04/21 07:42:07;;;;;;;;;;;;;;;26.03;41.43;93643.53;4992719;28;9135;-63
2023/04/21 07:44:33;;;;;;;;;;;;;;;26.06;41.44;93648.00;5009486;28;7257;-64
2023/04/21 07:47:02;;;;;;;;;;;;;;;26.09;41.40;93651.75;5010714;28;8695;-64
2023/04/21 07:49:37;;;;;;;;;;;;;;;26.10;41.12;93648.44;4990869;28;8792;-63
2023/04/21 07:52:14;;;;;;;;;;;;;;;26.12;40.78;93648.66;4995995;28;7307;-63
2023/04/21 07:54:42;;;;;;;;;;;;;;;26.14;41.04;93645.38;5029270;28;7003;-64
2023/04/21 07:57:18;;;;;;;;;;;;;;;26.15;40.47;93653.09;5027635;28;7287;-64
2023/04/21 07:59:45;;;;;;;;;;;;;;;26.16;40.39;93649.06;4992733;28;9086;-63
2023/04/21 08:02:11;;;;;;;;;;;;;;;26.17;40.57;93653.31;5008222;28;9053;-63
2023/04/21 08:04:37;;;;;;;;;;;;;;;26.14;40.81;93654.38;5006194;28;8750;-63
2023/04/21 08:07:05;;;;;;;;;;;;;;;26.17;40.57;93645.06;5028274;28;9080;-63
2023/04/21 08:09:31;;;;;;;;;;;;;;;26.14;40.75;93640.59;5030700;28;7028;-63
2023/04/21 08:12:03;;;;;;;;;;;;;;;26.13;40.90;93639.13;5043730;28;8988;-63
2023/04/21 08:15:07;;;;;;;;;;;;;;;26.16;40.54;93635.28;5048697;28;8253;-63
2023/04/21 08:17:53;;;;;;;;;;;;;;;26.17;41.20;93636.78;4953927;28;7006;-63
2023/04/21 08:20:21;;;;;;;;;;;;;;;26.15;40.73;93631.06;4938353;28;8957;-63
2023/04/21 08:22:53;;;;;;;;;;;;;;;26.15;40.87;93633.81;4928531;29;7095;-63
2023/04/21 08:25:30;;;;;;;;;;;;;;;26.17;41.45;93636.78;4945413;28;8886;-62
2023/04/21 08:27:57;;;;;;;;;;;;;;;26.20;41.12;93648.00;4951905;28;9154;-64
2023/04/21 08:30:23;;;;;;;;;;;;;;;26.18;41.13;93637.53;4936532;28;7104;-63
2023/04/21 08:32:49;;;;;;;;;;;;;;;26.14;41.25;93626.81;4936969;28;9409;-64
2023/04/21 08:35:15;;;;;;;;;;;;;;;26.18;40.55;93645.78;4933138;28;7240;-64
2023/04/21 08:37:45;;;;;;;;;;;;;;;26.15;41.07;93642.09;4932107;28;7870;-63
2023/04/21 08:40:11;;;;;;;;;;;;;;;26.14;40.60;93629.56;4930838;28;8955;-63
2023/04/21 08:42:39;;;;;;;;;;;;;;;26.16;41.22;93635.28;4948670;28;8089;-63
2023/04/21 08:45:08;;;;;;;;;;;;;;;26.15;41.39;93644.84;4958086;28;9031;-62
2023/04/21 08:47:37;;;;;;;;;;;;;;;26.14;41.00;93643.34;4960771;28;7822;-62
2023/04/21 08:50:11;;;;;;;;;;;;;;;26.13;40.81;93636.38;4948454;28;9060;-62
2023/04/21 08:52:39;;;;;;;;;;;;;;;26.13;41.52;93644.63;4972213;28;9036;-62
2023/04/21 08:55:08;;;;;;;;;;;;;;;26.13;40.82;93635.63;5025175;28;7087;-63
2023/04/21 08:57:34;;;;;;;;;;;;;;;26.17;41.28;93639.53;5042603;28;7479;-63
2023/04/21 09:00:08;;;;;;;;;;;;;;;26.19;41.42;93636.25;5012239;28;9568;-63
2023/04/21 09:02:53;;;;;;;;;;;;;;;26.14;41.53;93648.13;5024313;28;9232;-63
2023/04/21 09:05:26;;;;;;;;;;;;;;;26.13;41.48;93641.13;5018758;28;7241;-63
2023/04/21 09:08:10;;;;;;;;;;;;;;;26.14;40.92;93634.34;5015687;28;7226;-63
2023/04/21 09:10:56;;;;;;;;;;;;;;;26.12;40.98;93634.16;5015363;28;7112;-63
2023/04/21 09:13:50;;;;;;;;;;;;;;;26.17;40.71;93639.53;5012567;28;8732;-63
2023/04/21 09:16:32;;;;;;;;;;;;;;;26.24;40.66;93648.44;5024220;28;7266;-63
2023/04/21 09:19:17;;;;;;;;;;;;;;;26.24;41.18;93651.19;5031025;28;7453;-63
2023/04/21 09:22:16;;;;;;;;;;;;;;;26.20;41.02;93653.53;5030180;28;8734;-62
2023/04/21 09:24:58;;;;;;;;;;;;;;;26.19;40.86;93639.00;5002797;28;8532;-62
2023/04/21 09:27:36;;;;;;;;;;;;;;;26.19;40.89;93632.75;5029268;28;7046;-62
2023/04/21 09:30:26;;;;;;;;;;;;;;;26.23;40.61;93627.66;4994961;28;8799;-63
2023/04/21 09:33:35;;;;;;;;;;;;;;;26.26;40.91;93626.59;5014723;28;7154;-63
2023/04/21 09:36:04;;;;;;;;;;;;;;;26.26;41.60;93626.59;4984646;28;7198;-65
2023/04/21 09:38:31;;;;;;;;;;;;;;;26.28;40.76;93624.03;4984624;28;7264;-64
2023/04/21 09:41:06;;;;;;;;;;;;;;;26.26;40.84;93621.81;5006484;28;9339;-65
2023/04/21 09:43:32;;;;;;;;;;;;;;;26.29;41.04;93628.28;4980966;28;7190;-65
2023/04/21 09:46:04;;;;;;;;;;;;;;;26.28;41.20;93635.06;4996350;28;9206;-64
2023/04/21 09:48:35;;;;;;;;;;;;;;;26.29;40.83;93634.53;4997119;28;7097;-65
2023/04/21 09:51:02;;;;;;;;;;;;;;;26.30;40.79;93638.03;4991773;28;7454;-65
2023/04/21 09:53:33;;;;;;;;;;;;;;;26.30;41.39;93638.03;4980883;28;6860;-64
2023/04/21 09:56:05;;;;;;;;;;;;;;;26.33;41.55;93637.72;4976671;28;7172;-63
2023/04/21 09:58:46;;;;;;;;;;;;;;;26.37;41.34;93643.63;4995639;28;9179;-63
2023/04/21 10:01:14;;;;;;;;;;;;;;;26.39;41.08;93645.84;4999325;28;9343;-63
2023/04/21 10:04:11;;;;;;;;;;;;;;;26.41;41.00;93648.81;5002163;28;9027;-63
2023/04/21 10:06:41;;;;;;;;;;;;;;;26.38;41.12;93642.34;4983281;28;8974;-63
2023/04/21 10:09:10;;;;;;;;;;;;;;;26.39;40.77;93646.59;4989205;28;9042;-63
2023/04/21 10:11:37;;;;;;;;;;;;;;;26.41;41.22;93629.50;5014272;28;9091;-62
2023/04/21 10:14:15;;;;;;;;;;;;;;;26.40;40.97;93633.56;4999107;28;8893;-62
2023/04/21 10:17:21;;;;;;;;;;;;;;;26.40;41.35;93633.56;5001747;28;7013;-62
2023/04/21 10:19:57;;;;;;;;;;;;;;;26.41;41.42;93621.25;4958669;28;9375;-62
2023/04/21 10:22:56;;;;;;;;;;;;;;;26.43;41.14;93621.44;4932550;28;8718;-62
2023/04/21 10:25:31;;;;;;;;;;;;;;;26.45;41.37;93627.16;4947041;28;7524;-61
2023/04/21 10:27:59;;;;;;;;;;;;;;;26.46;41.75;93621.13;4951257;28;7588;-62
2023/04/21 10:30:50;;;;;;;;;;;;;;;26.46;41.08;93614.88;4935243;28;8946;-63
2023/04/21 10:33:29;;;;;;;;;;;;;;;26.47;41.74;93622.59;4949915;28;8611;-64
2023/04/21 10:36:23;;;;;;;;;;;;;;;26.45;40.69;93614.13;4937286;28;8967;-63
2023/04/21 10:38:57;;;;;;;;;;;;;;;26.43;41.54;93610.41;4933022;28;9798;-64
2023/04/21 10:41:33;;;;;;;;;;;;;;;26.45;40.94;93600.34;4934883;28;8965;-63
2023/04/21 10:44:17;;;;;;;;;;;;;;;26.46;41.73;93612.13;4955496;28;7114;-63
2023/04/21 10:46:58;;;;;;;;;;;;;;;26.46;41.28;93606.59;4937772;28;8162;-64
2023/04/21 10:49:31;;;;;;;;;;;;;;;26.48;41.40;93606.81;4938173;28;7208;-64
2023/04/21 10:52:19;;;;;;;;;;;;;;;26.51;41.10;93589.91;4959139;28;8774;-64
2023/04/21 10:54:46;;;;;;;;;;;;;;;26.53;40.96;93606.69;5002654;28;7091;-64
2023/04/21 10:57:17;;;;;;;;;;;;;;;26.53;41.11;93603.94;4989472;28;7166;-64
2023/04/21 10:59:44;;;;;;;;;;;;;;;26.55;40.89;93601.38;5022439;28;7458;-64
2023/04/21 11:02:17;;;;;;;;;;;;;;;26.57;41.50;93609.09;5037167;28;8773;-64
2023/04/21 11:04:50;;;;;;;;;;;;;;;26.55;40.91;93606.91;5041362;28;9260;-62
2023/04/21 11:07:27;;;;;;;;;;;;;;;26.58;41.35;93607.81;5030974;28;8851;-64
2023/04/21 11:10:07;;;;;;;;;;;;;;;26.58;41.73;93600.28;5067130;28;7304;-64
2023/04/21 11:12:49;;;;;;;;;;;;;;;26.60;41.09;93591.50;5066181;28;8300;-64
2023/04/21 11:15:15;;;;;;;;;;;;;;;26.60;40.70;93585.97;5038474;28;8912;-64
2023/04/21 11:17:46;;;;;;;;;;;;;;;26.61;41.16;93587.44;5033102;28;7105;-66
2023/04/21 11:20:27;;;;;;;;;;;;;;;26.60;41.00;93597.00;5060244;28;8019;-66
2023/04/21 11:23:07;;;;;;;;;;;;;;;26.62;40.86;93603.47;5034096;28;7128;-66
2023/04/21 11:26:16;;;;;;;;;;;;;;;26.59;41.09;93601.03;5034683;28;9428;-65
2023/04/21 11:28:48;;;;;;;;;;;;;;;26.61;41.42;93601.25;5035847;28;9070;-65
2023/04/21 11:31:17;;;;;;;;;;;;;;;26.61;41.32;93609.50;5030488;28;9533;-65
2023/04/21 11:34:11;;;;;;;;;;;;;;;26.62;41.20;93597.94;5035215;28;8753;-66
2023/04/21 11:37:08;;;;;;;;;;;;;;;26.64;40.91;93589.16;5020523;28;9781;-65
2023/04/21 11:39:39;;;;;;;;;;;;;;;26.64;41.13;93600.91;4961604;28;7295;-65
2023/04/21 11:42:06;;;;;;;;;;;;;;;26.61;41.13;93606.75;4955368;28;8945;-65
2023/04/21 11:44:44;;;;;;;;;;;;;;;26.62;41.61;93613.78;4954433;28;7228;-64
2023/04/21 11:47:30;;;;;;;;;;;;;;;26.63;41.61;93618.00;4958387;28;7573;-65
2023/04/21 11:50:00;;;;;;;;;;;;;;;26.61;40.94;93620.56;4943218;28;8267;-65
2023/04/21 11:52:36;;;;;;;;;;;;;;;26.61;41.10;93624.06;4962841;28;7282;-64
2023/04/21 11:55:18;;;;;;;;;;;;;;;26.60;41.25;93638.38;4956819;28;7220;-65
2023/04/21 11:57:45;;;;;;;;;;;;;;;26.61;41.42;93651.63;4974630;28;9114;-65
2023/04/21 12:00:20;;;;;;;;;;;;;;;26.61;41.62;93664.69;4961470;28;9206;-65
2023/04/21 12:02:57;;;;;;;;;;;;;;;26.60;41.09;93665.97;4974092;28;9165;-65
2023/04/21 12:05:23;;;;;;;;;;;;;;;26.61;41.75;93670.94;4957495;28;9033;-65
2023/04/21 12:08:23;;;;;;;;;;;;;;;26.63;41.34;93670.41;4954954;28;9076;-65
2023/04/21 12:11:04;;;;;;;;;;;;;;;26.62;41.34;93669.66;4924342;29;7267;-65
2023/04/21 12:13:41;;;;;;;;;;;;;;;26.59;41.58;93676.25;4946048;28;9116;-65
2023/04/21 12:16:10;;;;;;;;;;;;;;;26.61;41.55;93695.03;4941766;28;9030;-65
2023/04/21 12:18:41;;;;;;;;;;;;;;;26.61;41.17;93689.50;4976554;28;9149;-65
2023/04/21 12:21:14;;;;;;;;;;;;;;;26.61;41.31;93692.25;4991770;28;7084;-65
2023/04/21 12:23:43;;;;;;;;;;;;;;;26.62;41.61;93696.50;4980002;28;7030;-65
2023/04/21 12:26:10;;;;;;;;;;;;;;;26.60;41.15;93707.34;4984241;28;7103;-65
2023/04/21 12:28:38;;;;;;;;;;;;;;;26.58;41.09;93699.59;4975771;28;7895;-65
2023/04/21 12:31:14;;;;;;;;;;;;;;;26.62;41.08;93699.28;4969894;28;7036;-66
2023/04/21 12:34:16;;;;;;;;;;;;;;;26.61;40.96;93695.78;4973912;28;7057;-65
2023/04/21 12:36:42;;;;;;;;;;;;;;;26.62;40.79;93677.94;4977247;28;7263;-65
2023/04/21 12:39:39;;;;;;;;;;;;;;;26.62;41.35;93666.19;4970265;28;7499;-65
2023/04/21 12:42:07;;;;;;;;;;;;;;;26.57;41.27;93667.78;4932822;29;7211;-65
2023/04/21 12:44:32;;;;;;;;;;;;;;;26.61;41.48;93672.97;4927548;29;7027;-65
2023/04/21 12:47:03;;;;;;;;;;;;;;;26.63;40.85;93686.94;4946410;28;9231;-65
2023/04/21 12:49:29;;;;;;;;;;;;;;;26.65;41.07;93674.13;4951919;28;8935;-66
2023/04/21 12:52:26;;;;;;;;;;;;;;;26.69;41.42;93676.53;4953658;28;9104;-64
2023/04/21 12:55:29;;;;;;;;;;;;;;;26.69;40.81;93662.75;4947385;28;7337;-64
2023/04/21 12:58:34;;;;;;;;;;;;;;;26.69;41.10;93663.47;4889091;29;7275;-64
2023/04/21 13:01:00;;;;;;;;;;;;;;;26.69;40.95;93649.69;4886077;29;8922;-64
2023/04/21 13:03:42;;;;;;;;;;;;;;;26.68;41.35;93655.75;4890910;29;7072;-63
2023/04/21 13:06:39;;;;;;;;;;;;;;;26.70;40.97;93670.50;4896729;29;7043;-63
2023/04/21 13:09:16;;;;;;;;;;;;;;;26.70;40.87;93664.22;4897231;29;7260;-63
2023/04/21 13:11:44;;;;;;;;;;;;;;;26.71;40.57;93658.16;4896503;29;7038;-62
2023/04/21 13:14:19;;;;;;;;;;;;;;;26.73;40.60;93657.69;4897073;29;7205;-63
2023/04/21 13:16:56;;;;;;;;;;;;;;;26.73;41.08;93661.16;4897207;29;7462;-63
2023/04/21 13:19:41;;;;;;;;;;;;;;;26.76;40.38;93675.91;4939503;29;8709;-63
2023/04/21 13:22:36;;;;;;;;;;;;;;;26.77;41.00;93680.88;4952413;29;9276;-63
2023/04/21 13:25:57;;;;;;;;;;;;;;;26.77;40.82;93686.41;4900128;29;7289;-64
2023/04/21 13:28:30;;;;;;;;;;;;;;;26.77;40.86;93682.91;4859536;29;8237;-64
2023/04/21 13:31:13;;;;;;;;;;;;;;;26.78;40.41;93681.63;4865148;29;9187;-63
2023/04/21 13:33:56;;;;;;;;;;;;;;;26.79;40.87;93678.34;4914775;29;7179;-64
2023/04/21 13:36:50;;;;;;;;;;;;;;;26.79;40.45;93674.84;4907370;29;7266;-63
2023/04/21 13:39:17;;;;;;;;;;;;;;;26.81;40.57;93675.06;4884062;29;9343;-63
2023/04/21 13:41:54;;;;;;;;;;;;;;;26.80;40.88;93679.81;4915251;29;7498;-64
2023/04/21 13:44:55;;;;;;;;;;;;;;;26.80;40.83;93662.53;4913110;29;7173;-64